createdAt,value
2023-05-06T00:00:17.446Z,11.50
2023-05-06T00:02:44.398Z,11.50
2023-05-06T00:05:11.557Z,11.40
2023-05-06T00:07:39.147Z,11.40
2023-05-06T00:10:09.107Z,11.40
2023-05-06T00:12:36.062Z,11.40
2023-05-06T00:15:03.283Z,11.40
2023-05-06T00:17:30.100Z,11.30
2023-05-06T00:19:59.044Z,11.30
2023-05-06T00:22:26.092Z,11.30
2023-05-06T00:24:52.925Z,11.30
2023-05-06T00:27:20.005Z,11.30
2023-05-06T00:29:46.944Z,11.20
2023-05-06T00:32:15.362Z,11.20
2023-05-06T00:34:45.485Z,11.20
2023-05-06T00:37:12.507Z,11.20
2023-05-06T00:39:39.450Z,11.30
2023-05-06T00:42:06.608Z,11.30
2023-05-06T00:44:33.542Z,11.20
2023-05-06T00:47:01.969Z,11.10
2023-05-06T00:49:30.835Z,11.00
2023-05-06T00:51:59.071Z,11.00
2023-05-06T00:54:26.968Z,11.00
2023-05-06T00:56:54.676Z,10.90
2023-05-06T00:59:23.441Z,10.90
2023-05-06T01:01:52.245Z,10.80
2023-05-06T01:04:19.548Z,10.80
2023-05-06T01:06:57.962Z,10.70
2023-05-06T01:09:32.174Z,10.70
2023-05-06T01:12:08.328Z,10.70
2023-05-06T01:14:58.673Z,10.60
2023-05-06T01:17:31.029Z,10.60
2023-05-06T01:20:02.900Z,10.50
2023-05-06T01:22:31.541Z,10.50
2023-05-06T01:24:58.373Z,10.50
2023-05-06T01:27:25.527Z,10.50
2023-05-06T01:29:52.383Z,10.40
2023-05-06T01:32:47.126Z,10.40
2023-05-06T01:35:38.645Z,10.40
2023-05-06T01:38:26.662Z,10.30
2023-05-06T01:40:57.194Z,10.30
2023-05-06T01:43:33.721Z,10.20
2023-05-06T01:46:01.593Z,10.20
2023-05-06T01:48:33.989Z,10.10
2023-05-06T01:51:01.830Z,10.10
2023-05-06T01:53:29.435Z,10.00
2023-05-06T01:55:56.587Z,10.00
2023-05-06T01:58:23.419Z,9.90
2023-05-06T02:00:50.539Z,9.90
2023-05-06T02:03:17.462Z,9.90
2023-05-06T02:05:46.212Z,9.90
2023-05-06T02:08:13.173Z,9.80
2023-05-06T02:10:40.029Z,9.80
2023-05-06T02:13:07.234Z,9.80
2023-05-06T02:15:34.362Z,9.70
2023-05-06T02:18:01.624Z,9.70
2023-05-06T02:20:28.527Z,9.70
2023-05-06T02:22:55.585Z,9.70
2023-05-06T02:25:23.007Z,9.70
2023-05-06T02:27:50.039Z,9.70
2023-05-06T02:30:16.956Z,9.60
2023-05-06T02:32:44.048Z,9.60
2023-05-06T02:35:11.562Z,9.60
2023-05-06T02:37:38.853Z,9.60
2023-05-06T02:40:06.741Z,9.60
2023-05-06T02:42:36.087Z,9.60
2023-05-06T02:45:08.091Z,9.50
2023-05-06T02:47:35.361Z,9.40
2023-05-06T02:50:02.971Z,9.50
2023-05-06T02:52:31.089Z,9.40
2023-05-06T02:54:57.907Z,9.40
2023-05-06T02:57:24.920Z,9.40
2023-05-06T02:59:53.190Z,9.30
2023-05-06T03:02:20.362Z,9.40
2023-05-06T03:04:47.412Z,9.30
2023-05-06T03:07:15.222Z,9.30
2023-05-06T03:09:41.995Z,9.30
2023-05-06T03:12:08.832Z,9.20
2023-05-06T03:14:35.612Z,9.20
2023-05-06T03:17:02.412Z,9.20
2023-05-06T03:19:29.213Z,9.20
2023-05-06T03:21:56.417Z,9.20
2023-05-06T03:24:23.471Z,9.20
2023-05-06T03:26:50.742Z,9.20
2023-05-06T03:29:18.378Z,9.10
2023-05-06T03:31:45.610Z,9.10
2023-05-06T03:34:12.781Z,9.10
2023-05-06T03:36:39.695Z,9.10
2023-05-06T03:39:07.791Z,9.00
2023-05-06T03:41:34.716Z,9.00
2023-05-06T03:44:02.044Z,8.90
2023-05-06T03:46:29.172Z,9.00
2023-05-06T03:48:56.397Z,8.90
2023-05-06T03:51:23.255Z,8.90
2023-05-06T03:53:50.598Z,8.90
2023-05-06T03:56:19.139Z,8.90
2023-05-06T03:58:46.048Z,8.90
2023-05-06T04:01:14.750Z,8.90
2023-05-06T04:03:41.694Z,8.90
2023-05-06T04:06:08.913Z,8.80
2023-05-06T04:08:36.081Z,8.80
2023-05-06T04:11:08.123Z,8.80
2023-05-06T04:13:35.870Z,8.80
2023-05-06T04:16:03.340Z,8.80
2023-05-06T04:18:30.921Z,8.80
2023-05-06T04:20:57.769Z,8.80
2023-05-06T04:23:24.615Z,8.80
2023-05-06T04:25:52.057Z,8.80
2023-05-06T04:28:21.907Z,8.80
2023-05-06T04:30:48.974Z,8.80
2023-05-06T04:33:16.135Z,8.80
2023-05-06T04:35:53.869Z,8.80
2023-05-06T04:38:27.421Z,8.80
2023-05-06T04:43:22.167Z,9.10
2023-05-06T04:45:52.837Z,9.10
2023-05-06T04:48:22.386Z,9.10
2023-05-06T04:50:50.657Z,9.10
2023-05-06T04:53:17.951Z,9.20
2023-05-06T04:55:44.772Z,9.20
2023-05-06T04:58:11.533Z,9.30
2023-05-06T05:00:38.417Z,9.40
2023-05-06T05:03:05.610Z,9.40
2023-05-06T05:05:34.858Z,9.40
2023-05-06T05:08:01.663Z,9.50
2023-05-06T05:10:28.668Z,9.60
2023-05-06T05:12:55.623Z,9.70
2023-05-06T05:15:22.776Z,9.80
2023-05-06T05:17:51.321Z,9.90
2023-05-06T05:20:18.198Z,9.90
2023-05-06T05:26:02.084Z,10.10
2023-05-06T05:28:28.953Z,10.30
2023-05-06T05:31:01.437Z,10.40
2023-05-06T05:33:28.631Z,10.50
2023-05-06T05:35:55.661Z,10.70
2023-05-06T05:38:22.998Z,10.80
2023-05-06T05:40:49.920Z,10.90
2023-05-06T05:43:16.726Z,11.00
2023-05-06T05:45:43.555Z,11.10
2023-05-06T05:48:10.416Z,11.20
2023-05-06T05:50:37.278Z,11.20
2023-05-06T05:53:04.184Z,11.30
2023-05-06T05:55:31.369Z,11.40
2023-05-06T05:57:58.380Z,11.60
2023-05-06T06:00:25.360Z,11.70
2023-05-06T06:02:52.297Z,11.80
2023-05-06T06:05:19.205Z,12.00
2023-05-06T06:07:46.175Z,12.10
2023-05-06T06:10:14.414Z,12.30
2023-05-06T06:12:41.529Z,12.40
2023-05-06T10:43:25.443Z,21.40
2023-05-06T10:46:17.308Z,21.80
2023-05-06T10:49:12.248Z,21.90
2023-05-06T10:51:42.334Z,22.20
2023-05-06T10:54:09.908Z,22.40
2023-05-06T10:57:00.336Z,22.50
2023-05-06T10:59:30.003Z,22.80
2023-05-06T11:02:10.896Z,22.80
2023-05-06T11:04:38.939Z,22.00
2023-05-06T11:07:11.233Z,22.30
2023-05-06T11:09:57.193Z,22.70
2023-05-06T11:12:45.252Z,22.70
2023-05-06T11:15:36.564Z,22.40
2023-05-06T11:18:28.918Z,22.30
2023-05-06T11:21:02.548Z,21.90
2023-05-06T11:23:58.956Z,22.10
2023-05-06T11:26:26.016Z,22.10
2023-05-06T11:28:52.827Z,22.30
2023-05-06T11:31:22.481Z,22.60
2023-05-06T11:33:55.376Z,22.80
2023-05-06T11:36:22.596Z,22.90
2023-05-06T11:38:54.401Z,23.10
2023-05-06T11:41:23.171Z,23.30
2023-05-06T11:43:52.726Z,23.50
2023-05-06T11:46:21.272Z,24.20
2023-05-06T11:48:48.489Z,24.20
2023-05-06T11:51:16.311Z,23.90
2023-05-06T11:53:43.244Z,23.90
2023-05-06T11:56:10.669Z,24.20
2023-05-06T11:58:37.752Z,24.10
2023-05-06T12:01:04.977Z,23.10
2023-05-06T12:03:33.558Z,22.30
2023-05-06T12:06:01.228Z,22.10
2023-05-06T12:08:32.296Z,22.00
2023-05-06T12:11:02.176Z,21.40
2023-05-06T12:13:29.944Z,21.50
2023-05-06T12:15:59.264Z,21.70
2023-05-06T12:18:26.977Z,21.70
2023-05-06T12:20:55.166Z,21.30
2023-05-06T12:23:22.422Z,21.10
2023-05-06T12:26:04.337Z,21.10
2023-05-06T12:28:33.383Z,21.50
2023-05-06T12:31:22.842Z,21.50
2023-05-06T12:33:50.537Z,21.70
2023-05-06T12:36:23.191Z,22.10
2023-05-06T12:38:54.552Z,22.30
2023-05-06T12:41:22.287Z,22.70
2023-05-06T12:43:49.397Z,23.00
2023-05-06T12:46:17.152Z,23.30
2023-05-06T12:49:03.421Z,23.20
2023-05-06T12:51:34.217Z,23.50
2023-05-06T12:54:07.766Z,23.60
2023-05-06T12:56:39.448Z,23.10
2023-05-06T12:59:11.032Z,22.70
2023-05-06T13:01:40.916Z,22.60
2023-05-06T13:04:10.117Z,22.50
2023-05-06T16:42:30.426Z,17.90
2023-05-06T16:44:57.306Z,17.90
2023-05-06T16:47:24.385Z,17.70
2023-05-06T16:49:51.594Z,17.60
2023-05-06T16:52:19.206Z,17.50
2023-05-06T16:54:47.115Z,17.40
2023-05-06T16:57:14.010Z,17.30
2023-05-06T16:59:40.864Z,17.20
2023-05-06T17:02:07.729Z,17.00
2023-05-06T17:04:34.589Z,16.90
2023-05-06T17:07:01.408Z,16.90
2023-05-06T17:09:28.198Z,16.80
2023-05-06T17:11:55.067Z,16.80
2023-05-06T17:14:23.424Z,16.70
2023-05-06T17:16:52.116Z,16.70
2023-05-06T17:19:19.013Z,16.60
2023-05-06T17:21:45.949Z,16.60
2023-05-06T17:24:12.828Z,16.60
2023-05-06T17:26:40.879Z,16.50
2023-05-06T17:29:07.911Z,16.40
2023-05-06T17:31:35.323Z,16.30
2023-05-06T17:34:02.476Z,16.20
2023-05-06T17:36:29.401Z,16.10
2023-05-06T17:39:04.734Z,16.00
2023-05-06T17:41:32.084Z,16.00
2023-05-06T17:43:59.271Z,16.10
2023-05-06T17:46:26.683Z,16.00
2023-05-06T17:48:53.779Z,15.90
2023-05-06T17:51:20.995Z,15.90
2023-05-06T17:53:47.915Z,15.90
2023-05-06T17:56:15.020Z,16.00
2023-05-06T17:58:41.809Z,16.00
2023-05-06T18:01:09.015Z,15.90
2023-05-06T18:03:36.046Z,15.90
2023-05-06T18:06:03.000Z,15.90
2023-05-06T18:08:29.892Z,15.80
2023-05-06T18:10:56.827Z,15.90
2023-05-06T18:13:23.728Z,15.90
2023-05-06T18:15:50.543Z,15.90
2023-05-06T18:18:20.079Z,15.90
2023-05-06T18:20:46.985Z,15.90
2023-05-06T18:23:13.879Z,15.90
2023-05-06T18:25:40.647Z,15.90
2023-05-06T18:28:07.844Z,15.80
2023-05-06T18:30:34.706Z,15.80
2023-05-06T18:33:01.801Z,15.80
2023-05-06T18:35:28.943Z,15.80
2023-05-06T22:42:06.801Z,13.00
2023-05-06T22:44:33.638Z,13.00
2023-05-06T22:47:00.679Z,12.90
2023-05-06T22:49:28.913Z,13.00
2023-05-06T22:51:57.086Z,13.00
2023-05-06T22:54:24.578Z,12.90
2023-05-06T22:56:51.768Z,12.90
2023-05-06T22:59:18.598Z,12.90
2023-05-06T23:01:45.484Z,12.90
2023-05-06T23:04:13.475Z,12.90
2023-05-06T23:06:41.087Z,12.90
2023-05-06T23:09:08.275Z,12.90
2023-05-06T23:11:35.144Z,12.90
2023-05-06T23:14:01.998Z,13.00
2023-05-06T23:16:29.979Z,13.00
2023-05-06T23:18:57.450Z,13.10
2023-05-06T23:21:24.457Z,13.10
2023-05-06T23:23:51.277Z,13.00
2023-05-06T23:26:18.515Z,13.00
2023-05-06T23:28:45.823Z,13.00
2023-05-06T23:31:13.123Z,13.00
2023-05-06T23:33:39.974Z,13.10
2023-05-06T23:36:07.199Z,13.10
2023-05-06T23:38:34.123Z,13.10
2023-05-06T23:41:00.862Z,13.10
2023-05-06T23:43:28.407Z,13.10
2023-05-06T23:45:55.661Z,13.10
2023-05-06T23:48:22.455Z,13.10
2023-05-06T23:50:49.416Z,13.10
2023-05-06T23:53:16.527Z,13.10
2023-05-06T23:55:43.908Z,13.00
2023-05-06T23:58:10.830Z,13.00
